Time;durP1;ratioP1;P1;durP2;ratioP2;P2;SDS_P1;SDS_P2;PMS_P1;PMS_P2;Temp;Humidity;BMP_temperature;BMP_pressure;BME280_temperature;BME280_humidity;BME280_pressure;Samples;Min_cycle;Max_cycle;Signal;HPM_P1;HPM_P2
2022/10/13 00:01:25;;;;;;;5.88;0.60;;;14.80;99.90;;;;;;5007358;28;20057;-60
2022/10/13 00:03:51;;;;;;;5.18;0.88;;;14.80;99.90;;;;;;5017582;28;20447;-61
2022/10/13 00:06:19;;;;;;;2.60;0.68;;;14.80;99.90;;;;;;5010224;28;20080;-59
2022/10/13 00:08:45;;;;;;;2.83;0.60;;;14.70;99.90;;;;;;5007819;28;20032;-61
2022/10/13 00:11:16;;;;;;;5.75;0.88;;;14.70;99.90;;;;;;5004666;28;20048;-60
2022/10/13 00:13:43;;;;;;;3.30;0.43;;;14.70;99.90;;;;;;5011414;28;20030;-60
2022/10/13 00:16:11;;;;;;;6.03;1.25;;;14.70;99.90;;;;;;5013224;28;20041;-60
2022/10/13 00:18:37;;;;;;;14.35;0.98;;;14.70;99.90;;;;;;5021777;28;20485;-60
2022/10/13 00:21:12;;;;;;;4.85;1.08;;;14.60;99.90;;;;;;5015044;28;20034;-60
2022/10/13 00:23:39;;;;;;;5.15;0.73;;;14.60;99.90;;;;;;5006841;28;20509;-60
2022/10/13 00:26:06;;;;;;;4.20;1.00;;;14.60;99.90;;;;;;5008294;28;20105;-60
2022/10/13 00:28:32;;;;;;;8.80;1.30;;;14.60;99.90;;;;;;5010538;28;20105;-60
2022/10/13 00:30:58;;;;;;;6.05;0.88;;;14.60;99.90;;;;;;5010358;28;20034;-60
2022/10/13 00:33:24;;;;;;;3.67;0.95;;;14.60;99.90;;;;;;5012221;28;20079;-60
2022/10/13 00:35:50;;;;;;;3.17;0.40;;;14.60;99.90;;;;;;5007150;28;20077;-59
2022/10/13 00:38:19;;;;;;;3.08;1.00;;;14.60;99.90;;;;;;5018784;28;20037;-60
2022/10/13 00:40:55;;;;;;;7.15;0.90;;;14.60;99.90;;;;;;5007541;28;20046;-60
2022/10/13 00:46:50;;;;;;;5.75;0.80;;;14.50;99.90;;;;;;4988865;28;20034;-62
2022/10/13 00:49:15;;;;;;;3.28;0.50;;;14.40;99.90;;;;;;4976991;28;20026;-61
2022/10/13 00:51:45;;;;;;;1.88;0.35;;;14.40;99.90;;;;;;4993398;28;20041;-61
2022/10/13 00:54:15;;;;;;;0.45;0.20;;;14.10;99.90;;;;;;4988563;28;20451;-61
2022/10/13 00:56:41;;;;;;;2.17;0.17;;;13.90;99.90;;;;;;4990974;28;20174;-61
2022/10/13 00:59:21;;;;;;;0.00;0.00;;;13.80;99.90;;;;;;4995792;28;20430;-60
2022/10/13 01:01:48;;;;;;;0.38;0.30;;;13.70;99.90;;;;;;4992119;28;20030;-61
2022/10/13 01:04:16;;;;;;;0.13;0.10;;;13.60;99.90;;;;;;4996167;28;20046;-61
2022/10/13 01:06:42;;;;;;;1.25;0.10;;;13.50;99.90;;;;;;4985831;28;20489;-61
2022/10/13 01:09:08;;;;;;;1.05;0.20;;;13.50;99.90;;;;;;4989991;28;20129;-61
2022/10/13 01:11:49;;;;;;;0.80;0.10;;;13.40;99.90;;;;;;4986226;28;20319;-61
2022/10/13 01:14:37;;;;;;;0.90;0.22;;;13.30;99.90;;;;;;4989878;28;20046;-61
2022/10/13 01:17:24;;;;;;;0.10;0.10;;;13.30;99.90;;;;;;4987544;28;20464;-61
2022/10/13 01:20:18;;;;;;;0.32;0.30;;;13.30;99.90;;;;;;4986292;28;20038;-62
2022/10/13 01:23:14;;;;;;;1.55;0.30;;;13.20;99.90;;;;;;4994629;28;20100;-62
2022/10/13 01:26:27;;;;;;;0.25;0.10;;;13.20;99.90;;;;;;5005255;28;20030;-62
2022/10/13 01:29:31;;;;;;;0.30;0.30;;;13.20;99.90;;;;;;5015916;28;20493;-61
2022/10/13 01:32:14;;;;;;;0.68;0.20;;;13.10;99.90;;;;;;5006882;28;20026;-61
2022/10/13 01:34:45;;;;;;;0.22;0.10;;;13.10;99.90;;;;;;5013703;28;20636;-61
2022/10/13 01:37:28;;;;;;;0.55;0.10;;;13.00;99.90;;;;;;5010633;28;20045;-61
2022/10/13 01:40:04;;;;;;;0.35;0.20;;;13.00;99.90;;;;;;5008466;28;20076;-61
2022/10/13 01:42:50;;;;;;;0.20;0.10;;;13.00;99.90;;;;;;5007806;28;20394;-64
2022/10/13 01:45:18;;;;;;;0.00;0.00;;;13.00;99.90;;;;;;5012447;28;20037;-64
2022/10/13 01:47:45;;;;;;;1.15;0.10;;;13.00;99.90;;;;;;5007653;28;20071;-64
2022/10/13 01:50:14;;;;;;;1.13;0.25;;;13.00;99.90;;;;;;5013259;28;20544;-64
2022/10/13 01:52:41;;;;;;;0.20;0.20;;;12.90;99.90;;;;;;5007770;28;20030;-64
2022/10/13 01:55:10;;;;;;;3.08;0.30;;;12.90;99.90;;;;;;5012850;28;20374;-64
2022/10/13 01:57:40;;;;;;;0.47;0.10;;;12.90;99.90;;;;;;5006365;28;20034;-63
2022/10/13 02:00:17;;;;;;;0.45;0.45;;;12.90;99.90;;;;;;5007697;28;20030;-62
2022/10/13 02:02:56;;;;;;;0.60;0.10;;;12.90;99.90;;;;;;5002846;28;20029;-62
2022/10/13 02:05:24;;;;;;;0.82;0.30;;;12.90;99.90;;;;;;5006372;28;20050;-64
2022/10/13 02:08:01;;;;;;;0.43;0.20;;;12.80;99.90;;;;;;5011098;28;20028;-62
2022/10/13 02:10:33;;;;;;;1.55;0.10;;;12.80;99.90;;;;;;5010766;28;20030;-62
2022/10/13 02:13:02;;;;;;;1.08;0.10;;;12.80;99.90;;;;;;5011763;28;20026;-63
2022/10/13 02:15:47;;;;;;;0.80;0.20;;;12.90;99.90;;;;;;5005189;28;20042;-61
2022/10/13 02:18:16;;;;;;;0.20;0.10;;;12.90;99.90;;;;;;5005752;28;20570;-62
2022/10/13 02:20:44;;;;;;;0.30;0.20;;;12.90;99.90;;;;;;5017624;28;20029;-68
2022/10/13 02:23:14;;;;;;;0.57;0.15;;;12.90;99.90;;;;;;5020036;28;20033;-63
2022/10/13 02:25:41;;;;;;;0.73;0.10;;;12.90;99.90;;;;;;5011589;28;20841;-62
2022/10/13 02:28:08;;;;;;;0.68;0.05;;;12.90;99.90;;;;;;5012990;28;20401;-62
2022/10/13 02:30:34;;;;;;;0.63;0.17;;;13.00;99.90;;;;;;5012116;28;20030;-59
2022/10/13 02:33:01;;;;;;;0.28;0.20;;;13.00;99.90;;;;;;5005631;28;20032;-59
2022/10/13 02:35:28;;;;;;;0.10;0.10;;;13.00;99.90;;;;;;5010223;28;20120;-59
2022/10/13 02:37:54;;;;;;;0.57;0.32;;;13.00;99.90;;;;;;5011316;28;20065;-60
2022/10/13 02:40:20;;;;;;;0.55;0.10;;;13.00;99.90;;;;;;5013427;28;20472;-60
2022/10/13 02:42:46;;;;;;;0.85;0.20;;;13.00;99.90;;;;;;5021961;28;20025;-59
2022/10/13 02:45:11;;;;;;;2.67;0.40;;;13.10;99.90;;;;;;5010649;28;20126;-59
2022/10/13 02:47:37;;;;;;;0.15;0.15;;;13.00;99.90;;;;;;5011145;28;20367;-59
2022/10/13 02:50:04;;;;;;;2.22;0.80;;;13.10;99.90;;;;;;5007135;28;20433;-61
2022/10/13 02:52:30;;;;;;;0.30;0.20;;;13.10;99.90;;;;;;5010552;28;20072;-61
2022/10/13 02:54:56;;;;;;;1.00;0.20;;;13.10;99.90;;;;;;5007876;28;20042;-62
2022/10/13 02:57:21;;;;;;;1.42;0.20;;;13.10;99.90;;;;;;5007700;28;20478;-61
2022/10/13 02:59:48;;;;;;;0.20;0.10;;;13.10;99.90;;;;;;5017081;28;20084;-62
2022/10/13 03:02:13;;;;;;;1.83;0.20;;;13.20;99.90;;;;;;5013048;28;20106;-65
2022/10/13 03:04:39;;;;;;;1.65;0.20;;;13.20;99.90;;;;;;5007141;28;20697;-63
2022/10/13 03:07:05;;;;;;;1.20;0.82;;;13.20;99.90;;;;;;5006783;28;20038;-62
2022/10/13 03:09:31;;;;;;;1.08;0.47;;;13.10;99.90;;;;;;5010321;28;20117;-62
2022/10/13 03:11:56;;;;;;;1.00;0.10;;;13.20;99.90;;;;;;5018377;28;20028;-62
2022/10/13 03:14:22;;;;;;;2.67;1.10;;;13.10;99.90;;;;;;5008896;28;20390;-63
2022/10/13 03:16:48;;;;;;;0.38;0.20;;;13.10;99.90;;;;;;5020795;28;20394;-62
2022/10/13 03:19:14;;;;;;;0.90;0.40;;;13.10;99.90;;;;;;5011616;28;20454;-61
2022/10/13 03:21:39;;;;;;;2.88;0.40;;;13.10;99.90;;;;;;5019040;28;20559;-61
2022/10/13 03:24:05;;;;;;;1.75;0.28;;;13.10;99.90;;;;;;5012523;28;20033;-62
2022/10/13 03:26:32;;;;;;;2.65;0.32;;;13.20;99.90;;;;;;5012063;28;20030;-61
2022/10/13 03:28:59;;;;;;;1.10;0.30;;;13.30;99.90;;;;;;5012164;28;20029;-61
2022/10/13 03:31:24;;;;;;;0.75;0.30;;;13.10;99.90;;;;;;5016906;28;20037;-61
2022/10/13 03:33:51;;;;;;;0.25;0.10;;;13.10;99.90;;;;;;5018580;28;20026;-61
2022/10/13 03:36:17;;;;;;;2.13;0.68;;;13.20;99.90;;;;;;5015926;28;20026;-61
2022/10/13 03:38:43;;;;;;;1.00;0.20;;;13.20;99.90;;;;;;5014073;28;20041;-61
2022/10/13 03:41:18;;;;;;;4.50;0.77;;;13.20;99.90;;;;;;5015581;28;20056;-61
2022/10/13 03:43:44;;;;;;;1.40;0.10;;;13.20;99.90;;;;;;5022898;22;20065;-60
2022/10/13 03:46:15;;;;;;;0.20;0.20;;;13.20;99.90;;;;;;5012447;28;20030;-60
2022/10/13 03:48:40;;;;;;;2.97;0.38;;;13.20;99.90;;;;;;5015826;28;20084;-60
2022/10/13 03:51:12;;;;;;;0.50;0.30;;;13.20;99.90;;;;;;5023417;28;20033;-60
2022/10/13 03:53:37;;;;;;;3.27;0.27;;;13.20;99.90;;;;;;5010425;28;20034;-60
2022/10/13 03:56:04;;;;;;;2.33;0.32;;;13.20;99.90;;;;;;5012499;28;20363;-60
2022/10/13 03:58:30;;;;;;;0.98;0.10;;;13.10;99.90;;;;;;5010784;28;20066;-60
2022/10/13 04:01:00;;;;;;;3.60;0.43;;;13.10;99.90;;;;;;5017091;28;20082;-60
2022/10/13 04:03:26;;;;;;;3.10;0.30;;;13.10;99.90;;;;;;5002813;28;20112;-60
2022/10/13 04:05:52;;;;;;;0.75;0.30;;;12.90;99.90;;;;;;5012284;28;20073;-60
2022/10/13 04:08:18;;;;;;;1.27;0.30;;;13.00;99.90;;;;;;5015807;28;20041;-60
2022/10/13 04:10:44;;;;;;;1.05;0.20;;;12.90;99.90;;;;;;5010729;28;20030;-59
2022/10/13 04:13:09;;;;;;;0.10;0.10;;;12.90;99.90;;;;;;5017835;28;20042;-60
2022/10/13 04:15:39;;;;;;;0.90;0.30;;;12.90;99.90;;;;;;5013105;28;20401;-60
2022/10/13 04:18:06;;;;;;;0.55;0.20;;;12.80;99.90;;;;;;5012191;28;20033;-59
2022/10/13 04:20:36;;;;;;;0.20;0.20;;;12.80;99.90;;;;;;5016453;28;20397;-60
2022/10/13 04:23:01;;;;;;;0.57;0.30;;;12.80;99.90;;;;;;5015868;28;20037;-59
2022/10/13 04:25:27;;;;;;;1.50;0.52;;;12.70;99.90;;;;;;5010308;28;20026;-60
2022/10/13 04:27:53;;;;;;;0.90;0.28;;;12.80;99.90;;;;;;5013470;28;20033;-60
2022/10/13 04:30:18;;;;;;;1.20;0.30;;;12.70;99.90;;;;;;5012944;28;20564;-61
2022/10/13 04:32:44;;;;;;;0.40;0.38;;;12.70;99.90;;;;;;5005991;28;20100;-60
2022/10/13 04:35:10;;;;;;;3.00;0.90;;;12.60;99.90;;;;;;5011620;28;20129;-59
2022/10/13 04:37:36;;;;;;;0.90;0.30;;;12.60;99.90;;;;;;5010192;28;20053;-59
2022/10/13 04:40:02;;;;;;;1.80;0.50;;;12.60;99.90;;;;;;5012598;28;20037;-60
2022/10/13 04:42:28;;;;;;;0.98;0.30;;;12.60;99.90;;;;;;5010534;28;20049;-61
2022/10/13 04:44:53;;;;;;;2.60;0.47;;;12.60;99.90;;;;;;5011603;28;20449;-60
2022/10/13 04:47:19;;;;;;;0.22;0.20;;;12.60;99.90;;;;;;5018507;28;20057;-60
2022/10/13 04:49:45;;;;;;;0.57;0.40;;;12.60;99.90;;;;;;5007350;28;20030;-60
2022/10/13 04:52:10;;;;;;;1.30;0.40;;;12.60;99.90;;;;;;5018822;28;20069;-58
2022/10/13 04:54:36;;;;;;;0.50;0.47;;;12.50;99.90;;;;;;5008573;28;20033;-58
2022/10/13 04:57:01;;;;;;;1.50;0.30;;;12.50;99.90;;;;;;5015046;28;20021;-59
2022/10/13 04:59:27;;;;;;;1.40;0.52;;;12.50;99.90;;;;;;5013664;28;20367;-59
2022/10/13 05:01:53;;;;;;;2.80;0.40;;;12.60;99.90;;;;;;5010742;28;20021;-60
2022/10/13 05:04:18;;;;;;;1.38;0.50;;;12.50;99.90;;;;;;5010882;28;20239;-59
2022/10/13 05:06:44;;;;;;;0.43;0.32;;;12.50;99.90;;;;;;5008625;28;20481;-59
2022/10/13 05:09:17;;;;;;;1.65;0.50;;;12.50;99.90;;;;;;5010741;28;20045;-59
2022/10/13 05:11:43;;;;;;;2.45;1.40;;;12.50;99.90;;;;;;5009469;28;20037;-60
2022/10/13 05:14:09;;;;;;;1.20;0.60;;;12.50;99.90;;;;;;5017966;28;20022;-60
2022/10/13 05:16:35;;;;;;;1.42;0.77;;;12.50;99.90;;;;;;5010949;28;20057;-61
2022/10/13 05:19:00;;;;;;;1.92;0.93;;;12.50;99.90;;;;;;5014583;28;20449;-59
2022/10/13 05:21:28;;;;;;;2.15;0.70;;;12.50;99.90;;;;;;5010521;28;20112;-59
2022/10/13 05:23:54;;;;;;;1.17;0.40;;;12.50;99.90;;;;;;5012273;28;20021;-59
2022/10/13 05:26:30;;;;;;;1.58;0.50;;;12.50;99.90;;;;;;5014398;28;20041;-58
2022/10/13 05:28:57;;;;;;;3.30;0.70;;;12.50;99.90;;;;;;5011627;28;20152;-59
2022/10/13 05:31:25;;;;;;;1.65;0.60;;;12.50;99.90;;;;;;5015417;28;20068;-59
2022/10/13 05:33:51;;;;;;;1.38;0.65;;;12.50;99.90;;;;;;5000611;28;20105;-59
2022/10/13 05:36:23;;;;;;;1.98;0.70;;;12.60;99.90;;;;;;5025067;28;20033;-61
2022/10/13 05:38:51;;;;;;;0.90;0.60;;;12.60;99.90;;;;;;5012046;28;20541;-59
2022/10/13 05:41:17;;;;;;;3.75;1.10;;;12.50;99.90;;;;;;5017668;28;20036;-59
2022/10/13 05:43:42;;;;;;;3.28;0.50;;;12.50;99.90;;;;;;5010108;28;20041;-59
2022/10/13 05:46:09;;;;;;;1.15;0.60;;;12.50;99.90;;;;;;5008995;28;20049;-61
2022/10/13 05:48:35;;;;;;;1.23;0.70;;;12.60;99.90;;;;;;5009553;28;20044;-60
2022/10/13 05:51:05;;;;;;;2.40;0.77;;;12.60;99.90;;;;;;5016342;28;20026;-60
2022/10/13 05:53:35;;;;;;;4.43;0.70;;;12.60;99.90;;;;;;5015626;28;20363;-60
2022/10/13 05:56:09;;;;;;;2.25;0.93;;;12.60;99.90;;;;;;5026128;28;20029;-60
2022/10/13 05:58:39;;;;;;;3.03;0.95;;;12.60;99.90;;;;;;5007842;28;20525;-59
2022/10/13 06:01:09;;;;;;;4.28;0.77;;;12.60;99.90;;;;;;5009840;28;20093;-61
2022/10/13 06:03:35;;;;;;;2.47;1.15;;;12.60;99.90;;;;;;5010848;28;20544;-60
2022/10/13 06:06:01;;;;;;;4.50;1.48;;;12.60;99.90;;;;;;5008192;28;20036;-61
2022/10/13 06:08:28;;;;;;;3.45;1.02;;;12.60;99.90;;;;;;5017274;28;20030;-59
2022/10/13 06:10:54;;;;;;;3.67;1.58;;;12.60;99.90;;;;;;5015554;28;20025;-59
2022/10/13 06:13:19;;;;;;;3.85;1.10;;;12.60;99.90;;;;;;5004649;28;20022;-60
2022/10/13 06:15:45;;;;;;;6.07;1.90;;;12.60;99.90;;;;;;5013892;28;20371;-58
2022/10/13 06:18:11;;;;;;;3.25;1.88;;;12.70;99.90;;;;;;5010828;28;20014;-59
2022/10/13 06:20:36;;;;;;;6.13;1.77;;;12.70;99.90;;;;;;5000016;28;20026;-59
2022/10/13 06:23:02;;;;;;;6.50;2.28;;;12.60;99.90;;;;;;5009660;28;20026;-59
2022/10/13 06:25:28;;;;;;;4.13;1.90;;;12.70;99.90;;;;;;5004257;28;20033;-59
2022/10/13 06:27:56;;;;;;;5.18;1.83;;;12.70;99.90;;;;;;5001734;28;20101;-60
2022/10/13 06:30:21;;;;;;;5.25;2.13;;;12.70;99.90;;;;;;5006588;28;20431;-58
2022/10/13 06:32:47;;;;;;;3.38;1.95;;;12.60;99.90;;;;;;5006206;28;20053;-59
2022/10/13 06:35:13;;;;;;;5.70;2.15;;;12.70;99.90;;;;;;5013701;28;20053;-59
2022/10/13 06:37:39;;;;;;;8.18;2.05;;;12.70;99.90;;;;;;5004752;28;20109;-60
2022/10/13 06:40:05;;;;;;;5.45;2.25;;;12.80;99.90;;;;;;5010502;28;20117;-59
2022/10/13 06:42:32;;;;;;;3.38;1.40;;;12.80;99.90;;;;;;5008155;28;20386;-59
2022/10/13 06:44:58;;;;;;;3.88;2.13;;;12.70;99.90;;;;;;5017264;28;20040;-59
2022/10/13 06:47:24;;;;;;;3.55;1.85;;;12.70;99.90;;;;;;5010515;28;20104;-59
2022/10/13 06:49:50;;;;;;;3.08;1.60;;;12.80;99.90;;;;;;5012829;28;20034;-59
2022/10/13 06:52:16;;;;;;;6.10;2.25;;;12.80;99.90;;;;;;5015837;28;20092;-59
2022/10/13 06:54:42;;;;;;;5.07;2.05;;;12.90;99.90;;;;;;5011553;28;20049;-58
2022/10/13 06:57:07;;;;;;;2.95;1.88;;;12.90;99.90;;;;;;5024585;28;20104;-59
2022/10/13 06:59:33;;;;;;;5.13;1.70;;;12.90;99.90;;;;;;5010745;28;20029;-59
2022/10/13 07:01:59;;;;;;;3.08;2.10;;;12.90;99.90;;;;;;5013344;28;20030;-59
2022/10/13 07:04:26;;;;;;;6.72;2.25;;;12.90;99.90;;;;;;5009980;28;20121;-59
2022/10/13 07:06:52;;;;;;;3.75;1.83;;;12.90;99.90;;;;;;5017523;28;20026;-59
2022/10/13 07:09:19;;;;;;;3.75;2.28;;;12.90;99.90;;;;;;5012057;28;20056;-60
2022/10/13 07:11:45;;;;;;;6.15;2.88;;;12.90;99.90;;;;;;5016519;28;20037;-60
2022/10/13 07:14:12;;;;;;;5.07;2.00;;;12.90;99.90;;;;;;5018708;28;20030;-60
2022/10/13 07:16:38;;;;;;;7.63;2.40;;;12.90;99.90;;;;;;5017792;28;20029;-60
2022/10/13 07:19:03;;;;;;;12.13;4.50;;;13.00;99.90;;;;;;5015826;28;20485;-59
2022/10/13 07:21:29;;;;;;;5.47;2.30;;;13.10;99.90;;;;;;5014242;28;20037;-59
2022/10/13 07:23:55;;;;;;;5.85;1.85;;;13.10;99.90;;;;;;5015075;28;20029;-59
2022/10/13 07:26:21;;;;;;;5.18;1.50;;;13.10;99.90;;;;;;5012559;28;20033;-59
2022/10/13 07:28:47;;;;;;;4.60;1.42;;;13.10;99.90;;;;;;5005164;28;20049;-59
2022/10/13 07:31:19;;;;;;;4.07;1.80;;;13.20;99.90;;;;;;5012159;28;20374;-58
2022/10/13 07:33:46;;;;;;;4.32;1.83;;;13.20;99.90;;;;;;5006945;28;20103;-59
2022/10/13 07:36:13;;;;;;;9.60;2.08;;;13.20;99.90;;;;;;5011143;28;20050;-59
2022/10/13 07:38:39;;;;;;;7.00;2.13;;;13.20;99.90;;;;;;5004409;28;20030;-60
2022/10/13 07:41:06;;;;;;;3.08;1.80;;;13.30;99.90;;;;;;5006779;28;20097;-58
2022/10/13 07:43:32;;;;;;;4.82;2.00;;;13.20;99.90;;;;;;5007028;28;20039;-59
2022/10/13 07:45:59;;;;;;;5.07;2.20;;;13.30;99.90;;;;;;5007151;28;20040;-59
2022/10/13 07:48:26;;;;;;;4.45;2.45;;;13.20;99.90;;;;;;5008249;28;20026;-58
2022/10/13 07:50:52;;;;;;;4.20;1.55;;;13.20;99.90;;;;;;5010767;28;20025;-58
2022/10/13 07:53:17;;;;;;;7.10;1.92;;;13.30;99.90;;;;;;5006215;28;21427;-59
2022/10/13 07:55:43;;;;;;;3.80;1.50;;;13.40;99.90;;;;;;5004025;28;20034;-59
2022/10/13 07:58:09;;;;;;;8.65;3.45;;;13.50;99.90;;;;;;5007679;28;20027;-59
2022/10/13 08:00:35;;;;;;;4.78;2.78;;;13.40;99.90;;;;;;5005669;28;20467;-60
2022/10/13 08:03:01;;;;;;;5.10;2.00;;;13.40;99.90;;;;;;5009131;28;20026;-58
2022/10/13 08:05:27;;;;;;;3.13;1.60;;;13.50;99.90;;;;;;5008882;28;20084;-60
2022/10/13 08:07:52;;;;;;;7.07;2.85;;;13.50;99.90;;;;;;5008208;28;20036;-59
2022/10/13 08:10:19;;;;;;;4.03;1.63;;;13.40;99.90;;;;;;5007708;28;20076;-59
2022/10/13 08:12:45;;;;;;;5.38;1.80;;;13.50;99.90;;;;;;5008303;28;20033;-60
2022/10/13 08:15:11;;;;;;;4.57;2.50;;;13.50;99.90;;;;;;5003279;28;20833;-59
2022/10/13 08:17:37;;;;;;;4.78;2.30;;;13.50;99.90;;;;;;5009684;28;20026;-59
2022/10/13 08:20:04;;;;;;;6.20;1.88;;;13.60;99.90;;;;;;5009569;28;20439;-59
2022/10/13 08:22:33;;;;;;;4.18;3.25;;;13.70;99.90;;;;;;5005094;28;20022;-59
2022/10/13 08:25:02;;;;;;;2.58;1.60;;;13.80;99.90;;;;;;5006616;28;20026;-59
2022/10/13 08:27:28;;;;;;;4.78;2.13;;;13.90;99.90;;;;;;4998778;28;20080;-60
2022/10/13 08:29:54;;;;;;;4.10;1.88;;;13.90;99.90;;;;;;5008172;28;20497;-59
2022/10/13 08:32:21;;;;;;;4.30;2.60;;;14.00;99.90;;;;;;5007865;28;20029;-60
2022/10/13 08:34:48;;;;;;;4.32;1.80;;;14.00;99.90;;;;;;5005305;28;20034;-59
2022/10/13 08:37:15;;;;;;;3.28;1.80;;;14.00;99.90;;;;;;5005693;28;20022;-59
2022/10/13 08:39:41;;;;;;;5.03;3.22;;;14.10;99.90;;;;;;5003374;28;20108;-59
2022/10/13 08:42:18;;;;;;;2.70;1.73;;;14.00;99.90;;;;;;5003082;28;20120;-60
2022/10/13 08:44:48;;;;;;;4.13;1.55;;;14.00;99.90;;;;;;5005397;28;20465;-60
2022/10/13 08:47:25;;;;;;;2.20;1.63;;;14.10;99.90;;;;;;5005322;28;20547;-60
2022/10/13 08:49:56;;;;;;;4.40;2.28;;;14.20;99.90;;;;;;5001617;28;20543;-59
2022/10/13 08:52:27;;;;;;;1.80;1.30;;;14.10;99.90;;;;;;5002637;28;20026;-60
2022/10/13 08:54:55;;;;;;;2.57;1.37;;;14.10;99.90;;;;;;5005147;28;20091;-59
2022/10/13 08:57:21;;;;;;;7.10;1.60;;;14.10;99.90;;;;;;5008439;28;20121;-59
2022/10/13 08:59:48;;;;;;;3.30;1.52;;;14.00;99.90;;;;;;5006840;28;20049;-58
2022/10/13 09:02:29;;;;;;;4.60;1.80;;;14.10;99.90;;;;;;5007605;28;20030;-59
2022/10/13 09:04:58;;;;;;;3.40;1.30;;;14.20;99.90;;;;;;5004311;28;20030;-59
2022/10/13 09:07:28;;;;;;;1.95;1.02;;;14.30;99.90;;;;;;5005952;28;20120;-60
2022/10/13 09:09:54;;;;;;;2.92;0.80;;;14.30;99.90;;;;;;5008461;28;20021;-58
2022/10/13 09:12:23;;;;;;;2.05;1.10;;;14.20;99.90;;;;;;5006300;28;20052;-59
2022/10/13 09:15:00;;;;;;;3.38;1.08;;;14.30;99.90;;;;;;5008627;28;20137;-59
2022/10/13 09:17:26;;;;;;;2.25;0.95;;;14.30;99.90;;;;;;5008091;28;20029;-58
2022/10/13 09:20:22;;;;;;;2.60;1.13;;;14.30;99.90;;;;;;5006441;28;20037;-58
2022/10/13 09:23:02;;;;;;;2.03;1.45;;;14.40;99.90;;;;;;5008879;28;20018;-59
2022/10/13 09:25:29;;;;;;;3.83;1.40;;;14.40;99.90;;;;;;5006893;28;20088;-58
2022/10/13 09:27:59;;;;;;;7.78;2.88;;;14.50;99.90;;;;;;5008396;28;20025;-59
2022/10/13 09:30:27;;;;;;;7.05;2.83;;;14.50;99.90;;;;;;5007413;28;20030;-59
2022/10/13 09:33:08;;;;;;;3.40;2.58;;;14.50;99.90;;;;;;5007733;28;20053;-60
2022/10/13 09:35:44;;;;;;;4.03;2.90;;;14.50;99.90;;;;;;5007382;28;20033;-59
2022/10/13 09:38:17;;;;;;;2.97;1.85;;;14.60;99.90;;;;;;5004869;28;20034;-59
2022/10/13 09:40:54;;;;;;;4.30;1.90;;;14.70;99.90;;;;;;5009543;28;20037;-59
2022/10/13 09:43:31;;;;;;;4.60;1.58;;;14.80;99.90;;;;;;5009459;28;20112;-59
2022/10/13 09:45:58;;;;;;;0.80;0.47;;;14.90;99.90;;;;;;5008871;28;20029;-59
2022/10/13 09:48:33;;;;;;;0.65;0.38;;;14.90;99.90;;;;;;5005221;28;20061;-60
2022/10/13 09:50:59;;;;;;;1.65;0.40;;;14.80;99.90;;;;;;5003400;28;20026;-59
2022/10/13 09:53:38;;;;;;;2.17;0.90;;;14.90;99.90;;;;;;5005206;28;20057;-60
2022/10/13 09:56:27;;;;;;;0.43;0.40;;;14.90;99.90;;;;;;5008585;28;20033;-60
2022/10/13 09:59:07;;;;;;;2.20;0.30;;;14.80;99.90;;;;;;5006208;28;20054;-58
2022/10/13 10:01:39;;;;;;;0.65;0.30;;;14.90;99.90;;;;;;5008413;28;20052;-58
2022/10/13 10:04:06;;;;;;;;;;;14.90;99.90;;;;;;5007001;28;20038;-59
2022/10/13 10:06:33;;;;;;;1.60;0.60;;;14.90;99.90;;;;;;5001653;28;19913;-58
2022/10/13 10:09:32;;;;;;;0.55;0.40;;;15.00;99.90;;;;;;5003820;28;20026;-58
2022/10/13 10:12:00;;;;;;;1.65;0.82;;;15.00;99.90;;;;;;5007733;28;20115;-60
2022/10/13 10:14:33;;;;;;;2.53;0.40;;;15.00;99.90;;;;;;5006821;28;20093;-59
2022/10/13 10:17:26;;;;;;;3.40;1.38;;;14.90;99.90;;;;;;5005031;28;20033;-60
2022/10/13 10:20:18;;;;;;;1.20;0.52;;;14.80;99.90;;;;;;5002956;28;20022;-59
2022/10/13 10:23:10;;;;;;;1.08;0.65;;;14.80;99.90;;;;;;5001582;28;20037;-60
2022/10/13 10:26:02;;;;;;;7.55;2.35;;;14.80;99.90;;;;;;5004005;28;20065;-58
2022/10/13 10:28:40;;;;;;;2.83;1.40;;;14.70;99.90;;;;;;5004642;28;20316;-59
2022/10/13 10:31:27;;;;;;;3.22;1.38;;;14.70;99.90;;;;;;5008498;28;20026;-58
2022/10/13 10:34:25;;;;;;;4.47;2.97;;;14.90;99.90;;;;;;5005823;28;20437;-59
2022/10/13 10:37:10;;;;;;;7.65;2.30;;;15.10;99.90;;;;;;5006651;28;20448;-60
2022/10/13 10:39:38;;;;;;;2.55;2.00;;;15.20;99.90;;;;;;5008406;28;20030;-58
2022/10/13 10:42:31;;;;;;;2.83;2.00;;;15.30;99.90;;;;;;5007633;28;20116;-59
2022/10/13 10:45:02;;;;;;;4.18;2.25;;;15.30;99.90;;;;;;5005410;28;20049;-59
2022/10/13 10:47:41;;;;;;;2.92;2.03;;;15.40;99.90;;;;;;5002497;28;21433;-58
2022/10/13 10:50:07;;;;;;;4.68;2.30;;;15.50;99.90;;;;;;5006102;28;20051;-59
2022/10/13 10:53:11;;;;;;;2.55;2.00;;;15.60;99.90;;;;;;5009138;28;20037;-58
2022/10/13 10:56:16;;;;;;;4.85;2.05;;;15.80;99.90;;;;;;5006745;28;20037;-59
2022/10/13 10:58:51;;;;;;;2.88;1.58;;;16.30;99.90;;;;;;5000953;28;20502;-57
2022/10/13 11:01:42;;;;;;;3.97;1.17;;;16.30;99.90;;;;;;5005910;28;20133;-58
2022/10/13 11:04:47;;;;;;;2.17;0.93;;;16.30;99.90;;;;;;5003919;28;20030;-59
2022/10/13 11:07:33;;;;;;;2.30;0.90;;;16.30;99.90;;;;;;5005636;28;20094;-58
2022/10/13 11:09:58;;;;;;;0.93;0.65;;;16.20;99.90;;;;;;5004457;28;20041;-59
2022/10/13 11:12:43;;;;;;;0.60;0.47;;;16.10;99.90;;;;;;5004736;28;20025;-59
2022/10/13 11:15:11;;;;;;;0.50;0.40;;;16.10;99.90;;;;;;5004328;28;20477;-59
2022/10/13 11:17:39;;;;;;;1.88;0.95;;;15.90;99.90;;;;;;5008954;28;20026;-59
2022/10/13 11:20:20;;;;;;;1.85;0.60;;;15.90;99.90;;;;;;5005316;28;20529;-59
2022/10/13 11:22:58;;;;;;;2.10;0.70;;;16.00;99.90;;;;;;5007181;28;20111;-59
2022/10/13 11:25:36;;;;;;;0.20;0.20;;;16.30;99.90;;;;;;5007160;28;20030;-59
2022/10/13 11:28:22;;;;;;;0.63;0.40;;;16.30;99.90;;;;;;5003525;28;20478;-60
2022/10/13 11:30:54;;;;;;;2.60;0.82;;;16.40;99.90;;;;;;5001229;28;20379;-59
2022/10/13 11:33:37;;;;;;;;;;;16.40;99.90;;;;;;5005871;28;20061;-59
2022/10/13 11:36:29;;;;;;;4.68;0.50;;;16.40;99.90;;;;;;5011659;28;19917;-59
2022/10/13 11:39:18;;;;;;;0.52;0.40;;;16.40;99.90;;;;;;4987082;28;20397;-58
2022/10/13 11:42:11;;;;;;;0.55;0.40;;;16.20;99.90;;;;;;5008832;28;20109;-58
2022/10/13 11:44:53;;;;;;;1.13;0.30;;;16.20;99.90;;;;;;5004549;28;20128;-59
2022/10/13 11:47:43;;;;;;;0.63;0.60;;;16.30;99.90;;;;;;5011269;28;20053;-58
2022/10/13 11:50:28;;;;;;;1.50;0.30;;;16.30;99.90;;;;;;5008931;28;20747;-60
2022/10/13 11:53:12;;;;;;;2.70;0.77;;;16.40;99.90;;;;;;5006979;28;20017;-59
2022/10/13 11:55:51;;;;;;;0.90;0.43;;;16.50;99.90;;;;;;5006134;28;20121;-59
2022/10/13 11:58:29;;;;;;;0.38;0.30;;;16.60;99.90;;;;;;5008062;28;20030;-59
2022/10/13 12:01:12;;;;;;;0.60;0.30;;;16.50;99.90;;;;;;5013346;28;20026;-58
2022/10/13 12:03:42;;;;;;;3.72;2.10;;;16.60;99.90;;;;;;5008052;28;20549;-58
2022/10/13 12:06:32;;;;;;;0.40;0.40;;;16.60;99.90;;;;;;4997063;28;20034;-59
2022/10/13 12:09:01;;;;;;;1.20;1.10;;;16.50;99.90;;;;;;5009418;28;20110;-59
2022/10/13 12:11:31;;;;;;;0.40;0.40;;;16.50;99.90;;;;;;5008323;28;20025;-59
2022/10/13 12:13:57;;;;;;;2.15;0.40;;;16.50;99.90;;;;;;5006375;28;20044;-58
2022/10/13 12:16:23;;;;;;;1.15;0.40;;;16.60;99.90;;;;;;5004982;28;20060;-59
2022/10/13 12:18:50;;;;;;;0.80;0.63;;;16.60;99.90;;;;;;5006120;28;20115;-60
2022/10/13 12:21:21;;;;;;;1.38;0.60;;;16.90;99.90;;;;;;5011257;28;20084;-58
2022/10/13 12:23:48;;;;;;;0.80;0.20;;;17.20;99.90;;;;;;5010983;28;20513;-59
2022/10/13 12:26:20;;;;;;;0.85;0.45;;;17.70;99.90;;;;;;5012024;28;20036;-60
2022/10/13 12:29:03;;;;;;;0.50;0.30;;;18.30;99.90;;;;;;5001188;28;20030;-59
2022/10/13 12:31:41;;;;;;;0.82;0.47;;;18.40;99.90;;;;;;5016763;28;20443;-59
2022/10/13 12:34:16;;;;;;;1.67;0.30;;;18.60;99.90;;;;;;5017103;28;20030;-59
2022/10/13 12:36:44;;;;;;;0.45;0.35;;;18.70;99.90;;;;;;5003622;28;20849;-59
2022/10/13 12:39:13;;;;;;;1.98;0.60;;;18.80;99.90;;;;;;5006195;28;20073;-59
2022/10/13 12:41:42;;;;;;;0.20;0.20;;;19.20;99.90;;;;;;5019504;28;20038;-58
2022/10/13 12:44:15;;;;;;;0.30;0.30;;;19.20;99.90;;;;;;5007395;28;20104;-57
2022/10/13 12:46:42;;;;;;;0.57;0.43;;;18.90;99.90;;;;;;5007143;28;20034;-61
2022/10/13 12:49:15;;;;;;;0.70;0.30;;;19.00;99.90;;;;;;5011267;28;20072;-58
2022/10/13 12:51:43;;;;;;;0.90;0.40;;;19.00;99.90;;;;;;5004944;28;20034;-59
2022/10/13 12:54:27;;;;;;;15.18;0.68;;;18.90;99.90;;;;;;5005796;28;20025;-59
2022/10/13 12:56:56;;;;;;;0.98;0.50;;;18.70;99.90;;;;;;5010953;28;20075;-59
2022/10/13 12:59:23;;;;;;;0.90;0.40;;;18.60;99.90;;;;;;5001240;28;20038;-58
2022/10/13 13:01:55;;;;;;;1.20;0.45;;;18.60;99.90;;;;;;5009199;28;20132;-59
2022/10/13 13:04:20;;;;;;;;;;;19.00;99.90;;;;;;5002504;28;20038;-59
2022/10/13 13:06:55;;;;;;;0.25;0.25;;;19.60;99.90;;;;;;5002436;28;19909;-59
2022/10/13 13:09:22;;;;;;;1.08;0.20;;;19.80;99.90;;;;;;5006975;28;20403;-59
2022/10/13 13:12:01;;;;;;;0.25;0.20;;;19.80;99.90;;;;;;5012084;28;20022;-59